Date,TemperatureHighF,TemperatureAvgF,TemperatureLowF,DewpointHighF,DewpointAvgF,DewpointLowF,HumidityHigh,HumidityAvg,HumidityLow,PressureMaxIn,PressureMinIn,WindSpeedMaxMPH,WindSpeedAvgMPH,GustSpeedMaxMPH,PrecipitationSumIn
2013-1-1,44.9,39.2,35.5,38.0,29.9,10.0,100,72,24,30.21,30.15,10,4,0,0.00
2013-1-2,55.3,48.4,43.3,29.0,17.0,7.0,41,29,18,30.18,30.08,13,4,0,0.00
2013-1-3,56.6,50.5,48.0,28.0,13.1,6.0,35,23,16,30.18,30.08,8,3,0,0.00
2013-1-4,57.2,49.4,41.2,39.0,24.1,8.0,92,43,18,30.20,30.11,13,3,0,0.00
2013-1-5,44.1,42.3,40.5,44.0,42.3,40.0,100,100,93,30.21,30.03,16,6,0,0.41
2013-1-6,40.6,38.8,37.3,41.0,38.6,36.0,100,99,91,30.15,30.00,12,4,0,0.08
2013-1-7,51.0,46.1,39.5,43.0,37.6,29.0,94,73,49,30.21,30.10,12,4,0,0.00
2013-1-8,55.4,50.7,46.0,45.0,39.3,29.0,92,67,36,30.16,30.07,11,5,0,0.00
2013-1-9,56.7,46.3,35.3,45.0,37.7,27.0,100,75,32,30.07,29.94,13,4,0,0.01
2013-1-10,40.5,35.6,32.8,33.0,30.5,26.0,98,82,64,30.16,30.02,12,5,0,0.00
2013-1-11,42.3,36.4,33.2,36.0,30.1,23.0,100,79,64,30.22,30.10,11,4,0,0.02
2013-1-12,37.9,34.4,31.6,34.0,22.8,16.0,99,64,45,30.20,30.10,11,4,0,0.00
2013-1-13,38.3,34.4,30.4,23.0,14.1,5.0,63,45,25,30.21,30.12,13,4,0,0.00
2013-1-14,38.9,35.1,30.6,13.0,7.1,3.0,39,31,26,30.36,30.16,14,6,0,0.00
2013-1-15,47.1,41.5,38.2,24.0,17.9,11.0,49,39,32,30.41,30.34,10,4,0,0.00
2013-1-16,57.5,48.6,38.8,33.0,24.8,19.0,53,40,27,30.36,30.17,8,3,0,0.00
2013-1-17,64.8,58.7,51.0,31.0,21.8,14.0,33,24,16,30.17,30.07,11,3,0,0.00
2013-1-18,65.5,59.9,55.1,28.0,20.2,8.0,31,22,13,30.12,30.06,14,3,0,0.00
2013-1-19,66.6,59.0,55.9,31.0,18.6,8.0,34,21,14,30.15,30.07,11,2,0,0.00
2013-1-20,64.7,59.6,56.5,34.0,18.1,6.0,35,21,12,30.12,30.04,7,2,0,0.00
2013-1-21,67.1,61.2,56.6,31.0,13.8,-4.0,26,16,8,30.08,30.00,11,4,0,0.00
2013-1-22,64.5,58.0,52.5,30.0,15.2,-3.0,32,20,8,30.03,29.95,15,4,0,0.00
2013-1-23,56.0,51.9,45.8,45.0,27.7,16.0,96,43,24,30.02,29.91,8,0,0,0.09
2013-1-24,52.0,49.2,45.7,52.0,47.3,42.0,100,93,73,30.13,29.98,0,0,0,0.47
2013-1-25,60.9,52.3,49.6,56.0,51.9,50.0,100,99,79,30.13,29.98,8,2,0,0.04
2013-1-26,49.9,44.4,37.6,50.0,42.3,36.0,100,93,67,30.04,29.95,11,4,0,0.01
2013-1-27,43.3,38.2,35.3,38.0,34.1,26.0,100,87,55,30.13,30.02,13,3,0,0.01
2013-1-28,44.6,39.5,35.0,40.0,34.7,28.0,100,83,62,30.26,30.11,12,4,0,0.00
2013-1-29,51.3,43.5,36.5,39.0,35.4,31.0,100,75,48,30.31,30.22,13,4,0,0.01
2013-1-30,57.8,52.9,49.5,37.0,32.4,21.0,56,46,29,30.28,30.19,17,3,0,0.00
2013-1-31,63.4,54.9,49.1,45.0,34.6,24.0,64,47,34,30.20,30.11,8,2,0,0.00
2013-2-1,65.6,57.0,51.0,45.0,35.6,21.0,66,45,24,30.14,30.05,10,3,0,0.00
2013-2-2,63.2,55.7,49.4,50.0,40.4,24.0,84,58,30,30.20,30.12,7,2,0,0.00
2013-2-3,54.8,45.2,38.3,45.0,40.6,32.0,100,85,52,30.18,30.09,8,3,0,0.00
2013-2-4,64.5,55.2,49.4,46.0,34.1,24.0,64,46,31,30.11,29.98,9,2,0,0.00
2013-2-5,49.1,43.6,38.5,42.0,38.9,26.0,100,85,56,30.11,29.97,8,3,0,0.00
2013-2-6,49.9,43.1,38.5,40.0,35.4,29.0,96,75,61,30.15,30.08,9,4,0,0.00
2013-2-7,44.2,39.4,34.4,43.0,36.6,30.0,100,90,70,30.13,29.96,7,2,0,0.13
2013-2-8,40.9,36.5,33.4,36.0,32.6,20.0,100,87,44,29.97,29.88,15,4,0,0.04
2013-2-9,48.3,41.1,36.9,25.0,21.7,18.0,55,47,39,30.06,29.95,19,4,0,0.00
2013-2-10,48.0,44.3,40.2,32.0,25.6,17.0,62,49,36,30.07,29.98,9,4,0,0.00
2013-2-11,49.5,45.3,40.2,27.0,22.4,14.0,54,41,25,30.20,30.01,12,4,0,0.00
2013-2-12,54.4,47.1,42.2,40.0,30.6,22.0,69,53,42,30.29,30.19,8,2,0,0.00
2013-2-13,54.5,49.8,45.1,35.0,30.7,25.0,61,48,35,30.27,30.15,9,4,0,0.00
2013-2-14,57.6,53.9,49.4,37.0,34.1,31.0,57,48,37,30.16,30.10,12,6,0,0.00
2013-2-15,67.9,60.2,54.4,40.0,31.9,23.0,48,35,23,30.19,30.13,11,4,0,0.00
2013-2-16,68.6,60.6,54.4,43.0,29.5,19.0,60,33,19,30.15,29.97,7,2,0,0.00
2013-2-17,57.0,50.9,45.8,44.0,34.3,20.0,77,55,27,29.97,29.90,7,1,0,0.00
2013-2-18,47.1,41.3,36.8,41.0,36.8,33.0,100,85,63,29.99,29.91,7,1,0,0.00
2013-2-19,39.8,35.1,31.3,40.0,34.8,30.0,100,99,92,29.93,29.72,19,5,0,0.32
2013-2-20,47.6,38.8,31.8,38.0,30.4,24.0,100,74,51,30.03,29.79,13,5,0,0.00
2013-2-21,46.0,40.8,34.3,36.0,29.4,21.0,100,67,40,30.14,30.00,14,5,0,0.01
2013-2-22,53.6,47.5,43.8,38.0,30.0,24.0,77,52,43,30.20,30.12,7,3,0,0.00
2013-2-23,46.0,42.2,37.0,42.0,32.6,20.0,100,71,42,30.19,30.11,17,6,0,0.00
2013-2-24,49.4,43.7,37.8,23.0,18.6,13.0,53,37,28,30.21,30.14,14,6,0,0.00
2013-2-25,59.0,48.2,42.9,40.0,28.8,14.0,82,49,27,30.22,30.12,11,2,0,0.00
2013-2-26,54.2,49.6,43.2,32.0,19.8,12.0,63,32,21,30.15,30.07,12,6,0,0.00
2013-2-27,65.0,55.7,49.9,39.0,25.6,9.0,66,33,16,30.30,30.14,15,2,0,0.00
2013-2-28,59.3,53.7,49.8,48.0,43.0,36.0,83,67,56,30.38,30.28,11,3,0,0.00
2013-3-1,64.5,58.1,52.3,50.0,45.2,39.0,80,63,44,30.36,30.17,11,3,0,0.00
2013-3-2,69.1,59.1,48.8,44.0,40.6,38.0,80,52,38,30.17,30.02,13,3,0,0.00
2013-3-3,60.4,50.9,40.8,43.0,41.3,38.0,100,71,48,30.05,29.98,7,2,0,0.00
2013-3-4,58.9,46.2,37.2,47.0,41.9,36.0,100,86,61,30.09,29.99,6,2,0,0.00
2013-3-5,47.6,41.4,37.3,42.0,39.3,37.0,100,92,72,30.02,29.83,27,9,0,0.32
2013-3-6,48.9,42.1,36.8,44.0,39.4,33.0,100,91,66,30.04,29.83,27,6,0,0.46
2013-3-7,49.9,40.8,35.9,41.0,37.6,32.0,100,89,60,29.95,29.80,11,4,0,0.41
2013-3-8,48.0,40.7,37.2,43.0,38.1,33.0,100,91,68,30.03,29.75,18,5,0,0.04
2013-3-9,52.8,45.8,37.2,39.0,35.3,29.0,100,71,41,30.27,30.03,16,5,0,0.00
2013-3-10,59.8,53.7,47.7,34.0,27.2,18.0,51,37,20,30.28,30.20,10,2,0,0.00
2013-3-11,64.8,57.9,52.5,38.0,27.3,13.0,46,32,19,30.20,30.05,7,3,0,0.00
2013-3-12,68.1,61.7,55.9,46.0,37.0,23.0,59,41,25,30.06,30.01,11,2,0,0.00
2013-3-13,78.5,66.3,59.5,51.0,43.1,32.0,55,44,25,30.07,30.00,12,2,0,0.00
2013-3-14,70.6,61.6,56.3,53.0,42.0,22.0,63,50,24,30.07,30.00,9,2,0,0.00
2013-3-15,69.9,60.7,54.7,50.0,32.8,11.0,63,38,14,30.05,29.98,14,3,0,0.00
2013-3-16,68.9,58.6,53.2,45.0,38.3,30.0,59,48,32,30.03,29.95,11,2,0,0.00
2013-3-17,62.7,52.7,46.2,42.0,30.9,18.0,73,46,21,30.07,29.99,14,5,0,0.00
2013-3-18,64.7,56.5,49.8,46.0,34.2,20.0,69,44,26,30.05,29.96,8,2,0,0.00
2013-3-19,70.3,56.7,48.5,48.0,39.4,17.0,95,56,25,30.10,29.97,14,3,0,0.09
2013-3-20,59.8,51.7,46.1,53.0,47.4,42.0,100,86,66,30.08,30.01,12,1,0,0.07
2013-3-21,52.5,45.0,35.0,47.0,38.3,34.0,100,80,51,30.06,29.98,16,5,0,0.00
2013-3-22,55.9,48.7,43.9,36.0,18.1,-99.9,62,34,18,30.04,29.95,17,-4,0,0.00
2013-3-23,59.0,52.4,47.1,30.0,18.0,10.0,43,26,16,30.06,29.98,11,4,0,0.00
2013-3-24,67.8,57.9,52.5,48.0,35.0,17.0,67,44,24,30.02,29.91,6,2,0,0.00
2013-3-25,67.8,54.7,44.9,46.0,36.9,28.0,82,53,40,29.94,29.87,8,2,0,0.00
2013-3-26,63.4,51.0,40.1,47.0,41.4,33.0,96,71,50,29.94,29.88,11,2,0,0.00
2013-3-27,58.0,50.8,44.6,51.0,47.1,39.0,100,88,71,29.96,29.87,15,4,0,0.00
2013-3-28,62.7,52.1,47.7,56.0,50.3,46.0,100,94,72,30.04,29.94,11,4,0,0.11
2013-3-29,68.8,58.9,50.4,52.0,48.6,44.0,99,70,50,30.02,29.97,16,4,0,0.00
2013-3-30,63.2,52.1,46.4,53.0,48.3,46.0,100,88,57,30.02,29.95,16,5,0,0.23
2013-3-31,56.3,49.9,47.3,53.0,48.9,47.0,100,97,80,30.03,29.94,20,8,0,0.23
2013-4-1,58.9,50.1,46.1,53.0,48.5,46.0,100,95,70,30.11,29.98,10,1,0,0.19
2013-4-2,60.5,52.2,44.3,49.0,45.9,42.0,100,80,61,30.12,30.05,7,2,0,0.01
2013-4-3,73.0,59.2,51.1,54.0,44.3,33.0,82,59,37,30.07,29.94,10,3,0,0.00
2013-4-4,53.3,49.6,44.2,53.0,48.9,41.0,100,98,74,30.08,29.92,16,2,0,0.31
2013-4-5,61.3,51.2,45.1,53.0,47.8,44.0,100,89,63,30.14,30.07,7,2,0,0.00
2013-4-6,60.7,51.5,44.6,54.0,47.2,38.0,100,86,63,30.16,30.09,11,2,0,0.01
2013-4-7,65.2,52.9,45.1,53.0,44.5,33.0,100,74,53,30.11,29.81,13,3,0,0.17
2013-4-8,53.3,44.3,37.2,45.0,33.9,26.0,100,71,36,29.96,29.73,32,11,0,0.00
2013-4-9,60.7,53.6,46.2,35.0,28.6,25.0,63,40,26,30.04,29.93,28,11,0,0.00
2013-4-10,73.9,63.8,57.0,48.0,37.1,28.0,61,38,29,30.11,29.99,13,3,0,0.00
2013-4-11,63.2,54.9,41.9,47.0,40.4,31.0,97,60,35,29.98,29.80,12,3,0,0.00
2013-4-12,73.2,61.8,53.8,52.0,39.2,21.0,65,45,23,29.85,29.76,5,1,0,0.00
2013-4-13,69.8,54.9,40.8,51.0,40.3,22.0,88,60,24,29.84,29.76,7,2,0,0.00
2013-4-14,63.5,51.9,43.9,44.0,33.7,16.0,100,54,26,29.89,29.79,12,3,0,0.00
2013-4-15,47.6,41.1,35.0,44.0,36.5,31.0,100,85,64,29.92,29.79,21,5,0,0.02
2013-4-16,55.6,45.2,37.3,32.0,26.9,21.0,80,51,31,30.08,29.90,17,6,0,0.00
2013-4-17,55.4,49.5,43.9,32.0,23.9,19.0,48,38,24,30.20,30.07,21,9,0,0.00
2013-4-18,63.7,56.8,50.4,41.0,25.4,16.0,59,31,23,30.21,30.14,12,2,0,0.00
2013-4-19,77.9,64.8,56.3,45.0,36.7,27.0,48,36,27,30.17,29.99,9,2,0,0.00
2013-4-20,70.3,61.7,54.5,43.0,36.8,32.0,59,41,25,30.02,29.93,14,2,0,0.00
2013-4-21,75.6,68.0,61.6,36.0,31.5,27.0,38,26,17,29.97,29.88,10,4,0,0.00
2013-4-22,77.9,70.0,64.7,47.0,34.0,24.0,47,27,14,29.90,29.78,11,4,0,0.00
2013-4-23,77.0,64.9,54.2,53.0,33.9,15.0,84,35,18,29.86,29.74,14,4,0,0.00
2013-4-24,62.9,56.4,46.5,49.0,36.9,16.0,97,56,18,29.91,29.72,11,4,0,0.00
2013-4-25,70.3,55.3,45.1,51.0,47.5,43.0,100,78,49,30.06,29.89,10,3,0,0.00
2013-4-26,74.9,61.2,49.4,55.0,45.0,15.0,85,58,16,30.14,30.02,5,1,0,0.00
2013-4-27,83.8,72.1,61.2,54.0,31.1,6.0,44,24,10,30.11,29.97,9,2,0,0.00
2013-4-28,83.8,73.7,63.9,56.0,41.2,15.0,45,32,13,29.97,29.79,7,2,0,0.00
2013-4-29,81.1,73.1,66.6,48.0,40.3,33.0,42,31,22,29.81,29.68,12,2,0,0.00
2013-4-30,71.3,65.3,60.4,46.0,36.3,16.0,55,36,15,29.78,29.66,19,4,0,0.00
2013-5-1,74.2,65.7,58.0,48.0,21.2,11.0,43,19,14,30.02,29.76,13,3,0,0.00
2013-5-2,88.0,75.1,67.1,42.0,30.1,16.0,28,19,13,30.06,30.00,10,3,0,0.00
2013-5-3,85.3,74.4,67.3,38.0,26.4,12.0,33,17,11,30.00,29.73,8,3,0,0.00
2013-5-4,81.6,66.7,45.5,51.0,37.5,24.0,98,42,17,29.72,29.53,17,4,0,0.00
2013-5-5,54.2,48.5,45.4,49.0,46.6,45.0,100,93,76,29.75,29.52,27,10,0,0.00
2013-5-6,64.5,52.7,47.1,52.0,48.0,46.0,100,85,56,29.92,29.76,13,2,0,0.00
2013-5-7,69.3,55.9,48.6,49.0,47.0,41.0,96,74,42,30.00,29.89,10,2,0,0.00
2013-5-8,68.4,55.7,46.4,52.0,44.7,38.0,100,68,48,30.07,29.96,7,2,0,0.00
2013-5-9,71.6,56.8,44.8,54.0,47.9,42.0,100,74,51,30.10,30.02,7,2,0,0.00
2013-5-10,81.6,68.1,56.0,57.0,48.1,38.0,61,49,35,30.09,30.01,6,2,0,0.00
2013-5-11,90.3,78.0,65.6,56.0,41.8,26.0,44,28,18,30.05,29.96,10,2,0,0.00
2013-5-12,81.6,71.5,64.8,59.0,43.0,24.0,69,38,19,30.04,29.95,7,2,0,0.00
2013-5-13,81.4,71.1,62.7,58.0,38.8,11.0,53,33,11,29.99,29.86,6,2,0,0.00
2013-5-14,78.8,60.9,46.0,54.0,45.7,37.0,96,60,26,29.96,29.84,13,2,0,0.00
2013-5-15,67.9,54.5,45.2,46.0,40.1,33.0,87,60,39,30.01,29.91,8,2,0,0.00
2013-5-16,67.8,54.5,44.9,53.0,47.2,42.0,100,79,47,30.00,29.92,10,3,0,0.00
2013-5-17,67.9,52.8,43.5,48.0,42.3,35.0,97,70,35,30.04,29.91,10,2,0,0.00
2013-5-18,73.9,56.6,42.2,50.0,43.5,34.0,98,65,31,30.09,30.00,11,2,0,0.00
2013-5-19,71.6,63.0,54.1,43.0,37.0,29.0,59,40,21,30.06,29.93,13,5,0,0.00
2013-5-20,80.5,70.0,63.9,39.0,27.4,-12.0,30,21,4,29.94,29.86,12,3,0,0.00
2013-5-21,68.3,58.2,41.8,48.0,32.6,-17.0,77,45,3,29.92,29.81,11,3,0,0.00
2013-5-22,59.6,46.7,39.2,39.0,30.2,18.0,99,57,23,29.96,29.87,17,6,0,0.00
2013-5-23,66.1,49.4,38.3,43.0,36.7,20.0,100,66,29,29.98,29.86,13,3,0,0.00
2013-5-24,73.0,56.3,41.2,45.0,34.6,20.0,89,46,26,29.95,29.88,8,3,0,0.00
2013-5-25,66.8,51.3,40.1,45.0,41.2,39.0,99,73,37,30.01,29.89,7,2,0,0.00
2013-5-26,66.3,53.6,45.4,52.0,47.6,44.0,100,82,51,30.09,29.99,12,2,0,0.00
2013-5-27,59.3,51.9,44.8,54.0,49.2,42.0,100,91,74,30.09,29.96,7,2,0,0.01
2013-5-28,68.4,56.3,50.7,56.0,51.4,38.0,100,85,58,29.96,29.87,7,2,0,0.00
2013-5-29,68.3,57.6,49.2,54.0,45.0,21.0,91,65,27,29.92,29.86,7,2,0,0.00
2013-5-30,76.3,62.7,51.0,50.0,35.3,9.0,54,37,13,29.92,29.85,6,2,0,0.00
2013-5-31,78.3,69.3,57.6,46.0,35.5,28.0,47,30,16,29.94,29.86,13,3,0,0.00
2013-6-1,89.3,78.0,70.8,49.0,39.5,29.0,39,26,17,29.85,29.69,8,2,0,0.00
2013-6-2,82.4,69.7,48.3,56.0,49.0,41.0,94,50,30,29.68,29.61,6,1,0,0.00
2013-6-3,68.4,54.5,45.4,53.0,48.9,45.0,100,83,56,29.82,29.65,12,4,0,0.00
2013-6-4,73.7,58.7,49.6,55.0,51.5,49.0,100,79,52,29.91,29.78,12,4,0,0.00
2013-6-5,78.1,62.5,49.8,56.0,51.0,43.0,98,69,45,29.92,29.86,8,3,0,0.00
2013-6-6,80.3,70.6,60.7,56.0,53.9,50.0,75,57,44,29.82,29.79,8,2,0,0.00
2013-6-7,92.9,80.4,65.5,60.0,45.5,26.0,58,31,11,29.79,29.66,11,2,0,0.00
2013-6-8,91.4,78.1,55.4,60.0,44.3,17.0,86,39,8,29.74,29.61,12,3,0,0.00
2013-6-9,66.0,55.4,49.8,55.0,52.1,50.0,100,90,65,29.83,29.73,18,7,0,0.00
2013-6-10,65.0,54.2,47.3,51.0,49.6,47.0,100,86,61,29.90,29.79,24,6,0,0.00
2013-6-11,80.7,63.2,48.8,57.0,51.6,28.0,100,70,27,29.91,29.83,10,2,0,0.00
2013-6-12,82.4,67.8,54.2,43.0,30.2,4.0,47,26,9,29.94,29.81,6,2,0,0.00
2013-6-13,72.3,63.0,50.7,45.0,33.4,22.0,52,34,20,30.03,29.90,16,3,0,0.00
2013-6-14,81.1,68.7,60.9,42.0,34.6,24.0,48,29,19,29.91,29.77,10,2,0,0.00
2013-6-15,78.6,66.1,55.9,54.0,43.6,21.0,63,45,20,29.93,29.73,11,3,0,0.00
2013-6-16,78.6,68.1,59.9,53.0,38.7,23.0,49,35,21,30.01,29.89,8,2,0,0.00
2013-6-17,74.7,63.7,53.1,55.0,46.1,38.0,81,54,33,30.01,29.95,6,1,0,0.00
2013-6-18,64.7,54.2,46.4,48.0,44.8,41.0,94,72,43,29.98,29.93,14,4,0,0.00
2013-6-19,70.6,56.2,45.7,49.0,42.1,35.0,86,61,41,30.01,29.94,10,3,0,0.00
2013-6-20,77.6,61.8,51.7,49.0,36.9,-99.9,59,44,26,29.95,29.87,8,-8,0,0.00
2013-6-21,84.0,67.7,55.9,49.0,37.3,10.0,48,35,11,29.91,29.83,7,2,0,0.00
2013-6-22,87.8,71.9,55.4,48.0,37.5,19.0,76,31,15,29.85,29.78,11,2,0,0.00
2013-6-23,68.6,59.3,51.7,60.0,54.4,48.0,100,85,65,29.83,29.75,6,2,0,0.02
2013-6-24,59.0,56.5,54.2,59.0,56.6,54.0,100,100,99,29.88,29.72,14,4,0,0.04
2013-6-25,63.4,57.4,52.9,63.0,57.5,53.0,100,100,100,29.97,29.86,17,6,0,0.07
2013-6-26,83.6,66.9,58.0,65.0,60.9,57.0,100,83,49,29.98,29.92,6,1,0,0.01
2013-6-27,84.7,74.0,62.7,64.0,53.5,33.0,79,51,19,30.00,29.93,8,3,0,0.00
2013-6-28,97.8,84.6,74.0,59.0,48.1,32.0,46,29,19,29.95,29.83,12,2,0,0.00
2013-6-29,98.2,90.9,81.1,54.0,45.4,35.0,28,21,17,29.80,29.73,8,2,0,0.00
2013-6-30,98.0,85.7,77.4,54.0,43.7,27.0,33,23,13,29.75,29.68,6,1,0,0.00
2013-7-1,95.6,85.9,74.0,59.0,44.5,25.0,51,24,13,29.76,29.68,9,1,0,0.00
2013-7-2,91.4,80.3,67.8,57.0,51.7,41.0,56,38,25,29.84,29.71,14,2,0,0.00
2013-7-3,97.1,81.5,66.1,62.0,53.8,43.0,59,40,26,29.82,29.67,9,2,0,0.00
2013-7-4,99.0,85.1,71.6,63.0,54.8,40.0,46,36,26,29.68,29.61,6,1,0,0.00
2013-7-5,79.0,67.0,52.2,56.0,48.6,30.0,92,55,24,29.72,29.61,11,2,0,0.00
2013-7-6,77.9,58.8,48.6,55.0,50.3,42.0,100,77,41,29.76,29.68,7,2,0,0.00
2013-7-7,84.3,68.0,54.5,54.0,39.4,17.0,61,38,15,29.77,29.68,10,2,0,0.00
2013-7-8,85.3,71.1,60.7,47.0,34.0,19.0,43,27,11,29.88,29.74,11,3,0,0.00
2013-7-9,96.3,81.1,67.1,55.0,43.0,19.0,44,27,11,29.92,29.84,7,1,0,0.00
2013-7-10,89.5,76.8,63.4,56.0,42.0,13.0,71,32,10,29.86,29.80,8,2,0,0.00
2013-7-11,81.6,68.1,58.4,54.0,44.5,22.0,77,44,23,29.84,29.79,11,2,0,0.00
2013-7-12,85.7,69.2,57.8,55.0,47.1,18.0,70,48,14,29.86,29.80,8,3,0,0.00
2013-7-13,89.3,74.4,61.0,56.0,39.6,7.0,59,30,10,29.87,29.80,7,2,0,0.00
2013-7-14,88.4,74.4,63.5,54.0,41.6,12.0,64,32,11,29.89,29.80,7,2,0,0.00
2013-7-15,79.4,65.6,52.5,54.0,41.8,16.0,95,47,15,29.82,29.76,8,2,0,0.00
2013-7-16,76.8,58.9,48.9,57.0,52.6,49.0,100,83,47,29.98,29.77,7,2,0,0.01
2013-7-17,85.9,68.2,50.2,56.0,50.3,30.0,100,57,24,30.01,29.92,7,2,0,0.00
2013-7-18,91.2,77.5,68.4,54.0,37.0,-99.9,39,25,17,29.95,29.84,10,-9,0,0.00
2013-7-19,91.6,78.7,68.1,60.0,45.1,25.0,58,32,17,29.84,29.73,8,1,0,0.00
2013-7-20,86.1,74.8,62.7,59.0,48.1,33.0,63,40,21,29.74,29.67,11,2,0,0.00
2013-7-21,85.3,70.6,60.1,57.0,48.6,38.0,88,48,27,29.81,29.66,13,3,0,0.00
2013-7-22,79.2,66.3,57.2,58.0,50.4,38.0,98,60,27,29.90,29.79,13,6,0,0.00
2013-7-23,84.7,71.4,63.1,57.0,47.7,25.0,68,44,17,29.93,29.87,10,2,0,0.00
2013-7-24,93.6,80.0,69.1,59.0,43.5,17.0,53,29,12,29.89,29.80,6,1,0,0.00
2013-7-25,92.7,79.0,69.6,59.0,47.7,30.0,59,34,21,29.92,29.80,7,2,0,0.00
2013-7-26,91.4,77.6,66.9,60.0,46.1,31.0,66,34,22,29.99,29.88,7,2,0,0.00
2013-7-27,86.7,75.4,61.6,59.0,44.2,14.0,70,36,11,29.91,29.76,7,1,0,0.00
2013-7-28,77.9,68.7,51.0,56.0,45.6,15.0,92,47,11,29.78,29.72,7,1,0,0.00
2013-7-29,75.3,57.4,48.5,55.0,50.4,45.0,100,80,47,29.97,29.77,9,3,0,0.00
2013-7-30,79.2,65.4,52.2,54.0,47.8,34.0,77,55,34,30.03,29.93,13,4,0,0.00
2013-7-31,84.0,69.1,59.8,55.0,40.9,21.0,64,37,20,30.01,29.93,7,2,0,0.00
2013-8-1,79.8,66.9,53.1,52.0,43.9,20.0,73,46,18,30.00,29.88,6,1,0,0.00
2013-8-2,86.5,70.0,58.3,55.0,43.7,27.0,68,40,13,29.89,29.82,7,2,0,0.02
2013-8-3,78.1,65.1,53.2,56.0,48.4,32.0,75,56,33,29.89,29.80,8,2,0,0.00
2013-8-4,81.2,66.0,56.2,57.0,50.0,42.0,80,58,43,29.92,29.85,12,2,0,0.00
2013-8-5,85.1,68.7,57.5,55.0,47.3,31.0,69,48,26,29.92,29.86,8,2,0,0.00
2013-8-6,78.8,64.8,51.3,56.0,49.9,39.0,95,60,43,29.97,29.85,8,2,0,0.00
2013-8-7,79.0,60.8,49.5,55.0,51.5,48.0,100,76,40,30.04,29.94,8,2,0,0.00
2013-8-8,76.3,61.9,51.6,55.0,52.2,50.0,99,74,41,29.95,29.87,12,2,0,0.00
2013-8-9,78.6,62.1,47.0,57.0,51.8,45.0,100,73,41,29.92,29.82,7,1,0,0.00
2013-8-10,82.6,67.5,55.3,57.0,52.5,49.0,83,61,36,29.96,29.88,6,1,0,0.00
2013-8-11,82.2,68.5,59.9,58.0,46.8,-99.9,70,52,29,29.94,29.86,6,-12,0,0.00
2013-8-12,87.2,71.5,59.8,53.0,45.1,31.0,66,41,25,29.91,29.84,10,1,0,0.00
2013-8-13,92.3,76.5,63.9,49.0,38.9,30.0,36,26,16,29.90,29.83,8,2,0,0.00
2013-8-14,87.0,73.3,64.3,56.0,42.4,24.0,66,35,17,29.88,29.82,6,1,0,0.00
2013-8-15,85.5,72.4,64.0,64.0,54.7,45.0,81,55,35,29.87,29.81,7,1,0,0.00
2013-8-16,85.5,74.2,65.6,63.0,56.2,31.0,81,54,25,29.90,29.85,6,1,0,0.00
2013-8-17,84.9,72.8,67.1,57.0,37.1,6.0,66,31,8,29.91,29.80,5,1,0,0.00
2013-8-18,95.1,80.6,63.9,58.0,46.0,29.0,69,31,20,29.80,29.70,10,2,0,0.00
2013-8-19,94.9,80.5,65.8,57.0,48.8,-99.9,67,35,25,29.79,29.69,11,-9,0,0.00
2013-8-20,84.1,70.0,59.5,55.0,46.8,36.0,65,45,29,29.82,29.72,12,3,0,0.00
2013-8-21,81.6,67.7,55.1,53.0,47.3,38.0,90,50,29,29.85,29.76,8,2,0,0.00
2013-8-22,79.9,64.7,53.3,54.0,51.2,44.0,92,64,38,29.90,29.80,7,2,0,0.00
2013-8-23,85.3,68.2,54.7,56.0,50.6,33.0,92,57,27,29.84,29.74,6,1,0,0.00
2013-8-24,77.2,67.2,59.3,58.0,48.3,27.0,92,54,22,29.81,29.73,8,2,0,0.00
2013-8-25,80.1,66.5,54.7,58.0,54.7,46.0,98,69,43,29.87,29.80,13,2,0,0.00
2013-8-26,72.8,62.4,53.8,58.0,53.1,36.0,100,74,34,29.93,29.83,8,3,0,0.00
2013-8-27,83.2,69.5,59.3,57.0,46.8,35.0,81,46,29,29.83,29.75,10,2,0,0.00
2013-8-28,76.7,67.6,59.8,61.0,54.2,45.0,86,63,51,29.86,29.76,8,2,0,0.00
2013-8-29,77.7,67.7,60.4,61.0,56.4,50.0,88,68,53,29.97,29.86,8,3,0,0.00
2013-8-30,83.6,73.5,64.8,58.0,52.7,38.0,65,50,29,29.97,29.86,8,2,0,0.00
2013-8-31,89.0,76.7,68.9,54.0,44.5,33.0,52,33,22,29.88,29.80,8,1,0,0.00
2013-9-1,83.2,69.5,62.6,60.0,51.9,43.0,79,54,41,29.86,29.79,12,2,0,0.00
2013-9-2,77.4,65.8,58.6,62.0,56.9,52.0,100,74,46,29.89,29.81,10,2,0,0.00
2013-9-3,71.3,62.9,56.3,58.0,49.4,40.0,100,64,40,29.94,29.86,7,4,0,0.01
2013-9-4,73.7,62.9,53.6,55.0,49.3,42.0,95,63,48,29.98,29.90,7,2,0,0.00
2013-9-5,73.2,61.1,52.3,54.0,50.1,36.0,100,71,39,29.97,29.89,10,3,0,0.00
2013-9-6,80.9,71.2,60.7,49.0,42.9,32.0,61,37,29,29.91,29.77,8,3,0,0.00
2013-9-7,89.7,78.6,71.1,54.0,45.0,38.0,53,31,24,29.80,29.73,13,2,0,0.00
2013-9-8,92.1,79.0,70.9,57.0,41.7,-99.9,46,28,22,29.77,29.69,10,-8,0,0.00
2013-9-9,94.9,82.5,73.7,56.0,40.0,20.0,35,22,12,29.70,29.62,8,1,0,0.00
2013-9-10,76.7,65.1,54.4,55.0,46.0,20.0,97,58,12,29.84,29.62,8,2,0,0.00
2013-9-11,72.7,60.2,52.9,58.0,54.8,53.0,100,85,56,29.95,29.83,7,2,0,0.00
2013-9-12,84.0,66.6,53.6,60.0,55.6,36.0,100,72,31,29.91,29.81,7,1,0,0.00
2013-9-13,85.9,73.3,60.9,58.0,44.0,24.0,62,37,15,29.81,29.68,6,2,0,0.00
2013-9-14,77.2,69.9,62.1,57.0,43.2,23.0,65,41,14,29.72,29.65,5,1,0,0.00
2013-9-15,72.3,63.3,57.5,56.0,49.1,36.0,90,61,39,29.79,29.68,8,2,0,0.00
2013-9-16,77.0,64.8,53.2,57.0,52.2,47.0,83,65,43,29.82,29.74,8,3,0,0.00
2013-9-17,66.1,57.0,51.0,53.0,49.4,45.0,100,78,48,29.85,29.76,12,4,0,0.00
2013-9-18,72.5,63.8,56.6,47.0,41.2,31.0,69,46,22,29.84,29.77,12,4,0,0.00
2013-9-19,81.4,72.0,65.5,42.0,35.3,21.0,38,27,16,29.78,29.69,7,2,0,0.00
2013-9-20,73.0,63.8,56.3,56.0,42.0,2.0,99,54,7,29.80,29.67,8,2,0,0.00
2013-9-21,58.1,54.2,48.9,58.0,54.1,49.0,100,100,97,29.86,29.73,21,5,0,0.36
2013-9-22,62.3,54.0,47.6,54.0,48.6,42.0,100,83,60,29.96,29.86,8,3,0,0.01
2013-9-23,70.4,61.7,52.0,56.0,48.8,46.0,83,64,45,29.96,29.89,10,4,0,0.01
2013-9-24,67.9,58.6,50.5,54.0,48.0,39.0,92,69,49,29.94,29.86,18,4,0,0.00
2013-9-25,59.2,51.8,44.6,45.0,41.0,35.0,95,68,54,29.89,29.77,13,4,0,0.00
2013-9-26,61.8,54.1,47.3,42.0,33.9,27.0,80,49,27,29.93,29.76,16,6,0,0.00
2013-9-27,65.2,58.7,52.8,34.0,30.3,25.0,45,35,22,30.04,29.92,12,4,0,0.00
2013-9-28,75.6,66.1,58.6,42.0,31.2,26.0,43,28,18,30.02,29.94,5,2,0,0.00
2013-9-29,72.7,62.8,56.3,56.0,48.9,38.0,93,63,36,30.04,29.96,7,2,0,0.00
2013-9-30,67.8,59.7,55.0,59.0,55.5,53.0,100,87,63,30.03,29.92,7,2,0,0.00
2013-10-1,69.9,57.1,48.3,53.0,43.9,29.0,95,63,33,29.96,29.86,7,2,0,0.00
2013-10-2,74.4,61.9,56.5,47.0,39.7,18.0,61,46,20,29.93,29.84,10,3,0,0.00
2013-10-3,59.9,55.5,50.2,35.0,28.8,22.0,55,37,24,29.98,29.85,24,8,0,0.00
2013-10-4,66.6,61.5,53.6,28.0,24.4,20.0,33,24,18,30.05,29.86,13,7,0,0.00
2013-10-5,80.3,69.1,62.0,30.0,22.1,16.0,22,17,10,30.11,30.03,12,4,0,0.00
2013-10-6,81.4,72.1,66.8,29.0,21.0,16.0,23,15,10,30.04,29.90,13,3,0,0.00
2013-10-7,73.9,68.2,62.4,32.0,23.1,14.0,26,18,14,29.90,29.82,7,2,0,0.00
2013-10-8,71.5,59.3,45.1,47.0,36.8,12.0,96,47,14,29.82,29.64,8,2,0,0.00
2013-10-9,60.4,49.7,42.3,44.0,40.5,33.0,99,74,41,29.72,29.57,12,2,0,0.00
2013-10-10,61.2,54.7,49.5,47.0,40.2,31.0,92,60,39,29.95,29.70,12,3,0,0.00
2013-10-11,68.6,56.9,49.8,49.0,40.4,30.0,77,55,37,30.00,29.92,7,1,0,0.00
2013-10-12,70.9,58.0,47.7,46.0,38.5,30.0,80,51,29,29.93,29.85,7,2,0,0.00
2013-10-13,61.0,54.9,48.6,46.0,38.9,33.0,89,57,35,30.00,29.83,10,4,0,0.00
2013-10-14,67.6,61.0,56.3,38.0,32.5,27.0,46,35,28,30.05,29.94,8,5,0,0.00
2013-10-15,67.8,62.2,57.8,31.0,27.8,24.0,32,27,23,29.97,29.89,11,5,0,0.00
2013-10-16,77.7,67.3,62.4,36.0,26.8,19.0,27,22,16,30.01,29.93,11,2,0,0.00
2013-10-17,73.2,66.5,62.9,31.0,26.9,17.0,28,23,16,30.01,29.91,8,2,0,0.00
2013-10-18,77.7,68.4,63.4,40.0,29.3,22.0,38,24,17,29.97,29.91,6,2,0,0.00
2013-10-19,81.2,71.1,65.0,37.0,30.5,24.0,29,23,15,29.98,29.91,13,2,0,0.00
2013-10-20,79.4,70.1,65.6,41.0,30.9,16.0,34,24,13,29.92,29.83,9,2,0,0.00
2013-10-21,79.4,68.9,61.6,43.0,30.6,16.0,43,25,14,29.89,29.82,6,1,0,0.00
2013-10-22,79.4,70.6,65.8,45.0,34.9,25.0,46,28,18,29.90,29.83,8,2,0,0.00
2013-10-23,80.3,70.3,63.1,49.0,34.0,21.0,56,27,16,29.84,29.78,7,1,0,0.00
2013-10-24,67.9,61.6,53.9,48.0,35.1,16.0,81,41,14,30.02,29.83,6,1,0,0.00
2013-10-25,75.6,65.4,57.5,46.0,30.7,19.0,52,28,18,30.07,30.00,6,2,0,0.00
2013-10-26,76.3,67.5,61.6,43.0,31.9,21.0,40,27,16,30.05,29.93,7,2,0,0.00
2013-10-27,66.0,58.3,43.6,47.0,36.2,23.0,100,50,23,29.93,29.64,14,2,0,0.01
2013-10-28,46.8,46.2,45.5,47.0,46.0,44.0,100,98,91,29.82,29.72,5,2,0,0.06
2013-10-29,53.1,47.0,42.8,48.0,44.8,43.0,100,92,73,29.99,29.82,7,2,0,0.01
2013-10-30,56.0,50.2,44.8,44.0,41.8,38.0,93,74,55,30.09,29.99,7,3,0,0.01
2013-10-31,61.6,55.1,48.3,43.0,39.6,36.0,78,58,40,30.12,30.02,7,2,0,0.00
2013-11-1,72.3,62.5,56.3,39.0,32.9,22.0,51,34,22,30.06,29.95,9,3,0,0.00
2013-11-2,67.6,60.3,50.8,48.0,32.4,7.0,77,38,14,29.95,29.85,9,2,0,0.00
2013-11-3,52.8,49.4,45.5,42.0,25.4,17.0,74,41,26,29.97,29.84,16,6,0,0.00
2013-11-4,54.7,49.8,43.2,29.0,23.8,20.0,57,37,26,30.00,29.84,17,7,0,0.00
2013-11-5,60.7,55.8,50.7,29.0,23.9,19.0,34,29,24,30.17,29.98,16,6,0,0.00
2013-11-6,70.9,61.1,55.9,34.0,27.9,20.0,38,29,20,30.17,30.09,8,2,0,0.00
2013-11-7,72.5,62.3,57.3,42.0,28.3,17.0,53,29,18,30.10,29.98,8,2,0,0.00
2013-11-8,67.3,61.1,56.3,44.0,40.4,34.0,63,47,31,30.00,29.89,9,2,0,0.00
2013-11-9,65.6,58.8,49.6,41.0,34.1,16.0,61,41,19,29.98,29.89,11,2,0,0.00
2013-11-10,63.7,57.1,49.4,45.0,34.5,18.0,84,44,22,30.04,29.94,14,5,0,0.00
2013-11-11,68.1,59.1,51.0,39.0,32.3,23.0,64,38,27,30.09,30.00,13,4,0,0.00
2013-11-12,66.0,60.0,53.9,45.0,36.9,28.0,58,43,31,30.18,30.07,9,2,0,0.00
2013-11-13,67.8,62.6,58.0,44.0,36.9,26.0,54,40,22,30.17,30.03,11,3,0,0.00
2013-11-14,71.6,62.2,49.1,44.0,39.0,23.0,67,44,24,30.02,29.79,11,2,0,0.00
2013-11-15,55.0,49.3,43.1,40.0,34.3,30.0,88,58,40,29.80,29.69,12,3,0,0.00
2013-11-16,57.6,47.2,40.1,46.0,39.0,23.0,100,76,37,29.89,29.71,8,2,0,0.00
2013-11-17,57.3,48.5,44.1,46.0,42.6,37.0,100,81,54,30.03,29.86,6,2,0,0.01
2013-11-18,55.7,47.2,41.8,43.0,39.8,32.0,97,76,56,30.09,30.02,10,3,0,0.01
2013-11-19,53.9,48.7,43.1,53.0,48.1,43.0,100,98,88,30.06,29.91,10,3,0,0.40
2013-11-20,52.8,49.5,44.2,53.0,49.6,44.0,100,100,100,29.91,29.80,12,3,0,0.47
2013-11-21,47.4,44.9,39.9,45.0,34.2,20.0,100,71,34,29.89,29.83,18,8,0,0.47
2013-11-22,55.0,48.9,43.2,24.0,14.8,6.0,38,26,17,29.94,29.86,18,9,0,0.00
2013-11-23,58.7,49.9,44.1,46.0,33.1,14.0,96,55,28,30.05,29.90,11,4,0,0.00
2013-11-24,56.6,49.3,43.8,38.0,34.3,14.0,68,57,29,30.19,30.04,7,2,0,0.00
2013-11-25,59.2,52.6,47.4,39.0,33.6,23.0,65,50,30,30.25,30.18,8,3,0,0.00
2013-11-26,63.5,56.4,52.8,41.0,33.1,24.0,58,42,31,30.18,29.95,12,2,0,0.00
2013-11-27,60.7,54.2,49.8,40.0,36.7,34.0,61,52,40,29.94,29.78,13,3,0,0.00
2013-11-28,62.9,55.0,49.5,41.0,35.6,31.0,60,49,36,30.01,29.78,10,4,0,0.00
2013-11-29,67.4,58.7,53.1,35.0,30.4,23.0,47,34,27,30.14,30.00,7,2,0,0.00
2013-11-30,60.4,56.0,50.5,37.0,31.5,22.0,48,40,28,30.19,30.12,12,3,0,0.00
2013-12-1,62.3,58.2,54.8,38.0,35.0,32.0,49,42,33,30.26,30.15,13,3,0,0.00
2013-12-2,70.1,59.6,46.1,48.0,28.9,-12.0,99,41,4,30.16,29.89,11,2,0,0.00
2013-12-3,45.4,41.2,37.9,40.0,28.7,-99.9,92,66,39,29.88,29.77,18,5,0,0.00
2013-12-4,39.8,36.6,33.7,24.0,16.2,11.0,65,44,33,30.01,29.86,14,4,0,0.00
2013-12-5,40.1,35.2,30.7,24.0,10.4,4.0,68,36,27,30.12,30.01,10,3,0,0.00
2013-12-6,45.5,37.8,31.8,42.0,32.0,25.0,100,81,51,30.15,29.88,19,4,0,0.36
2013-12-7,42.3,34.5,29.0,42.0,28.0,19.0,100,78,54,30.19,29.86,22,6,0,0.75
2013-12-8,33.8,30.4,28.4,25.0,19.3,10.0,84,65,44,30.25,30.15,11,4,0,0.00
2013-12-9,42.1,35.9,29.7,16.0,9.9,2.0,45,34,27,30.35,30.22,12,5,0,0.00
2013-12-10,53.8,46.2,41.1,15.0,6.8,-1.0,29,20,12,30.33,30.12,12,4,0,0.00
2013-12-11,58.6,51.6,45.1,24.0,15.7,9.0,29,24,17,30.13,30.08,12,4,0,0.00
2013-12-12,60.2,51.5,44.6,27.0,14.9,9.0,48,24,15,30.16,30.09,14,5,0,0.00
2013-12-13,52.6,49.1,43.1,29.0,21.9,14.0,55,35,27,30.24,30.13,10,4,0,0.00
2013-12-14,58.3,53.3,46.8,33.0,26.9,18.0,51,37,22,30.29,30.22,11,4,0,0.00
2013-12-15,68.6,60.4,55.4,30.0,19.1,12.0,28,20,15,30.27,30.13,11,2,0,0.00
2013-12-16,72.8,65.6,61.2,31.0,16.2,7.0,23,15,11,30.13,30.02,8,1,0,0.00
2013-12-17,73.9,66.4,62.4,32.0,20.2,13.0,28,17,13,30.07,29.92,6,1,0,0.00
2013-12-18,64.3,55.3,41.9,45.0,32.1,15.0,99,51,15,29.91,29.71,13,2,0,0.00
2013-12-19,46.1,42.1,37.3,41.0,29.7,11.0,97,65,28,29.87,29.65,17,7,0,0.00
2013-12-20,53.5,46.0,39.1,24.0,5.3,-7.0,33,20,10,29.95,29.86,13,5,0,0.00
2013-12-21,56.7,52.3,48.6,44.0,36.9,18.0,80,57,27,30.00,29.90,11,5,0,0.00
2013-12-22,58.1,54.9,50.4,34.0,30.4,25.0,47,40,31,30.21,29.99,21,6,0,0.00
2013-12-23,64.5,56.6,52.6,39.0,32.9,23.0,52,41,26,30.30,30.20,7,2,0,0.00
2013-12-24,61.6,57.7,52.6,35.0,28.2,13.0,40,33,17,30.23,30.11,14,3,0,0.00
2013-12-25,68.9,61.4,52.8,34.0,26.0,17.0,36,26,18,30.19,30.11,7,1,0,0.00
2013-12-26,73.0,64.4,59.3,25.0,18.5,8.0,26,17,11,30.15,30.06,9,2,0,0.00
2013-12-27,71.5,63.9,59.8,26.0,15.0,5.0,25,15,8,30.12,30.01,8,2,0,0.00
2013-12-28,62.6,55.7,51.1,22.0,16.4,1.0,31,22,9,30.04,29.94,17,5,0,0.00
2013-12-29,61.8,55.3,50.5,20.0,13.6,7.0,27,19,14,30.11,29.97,17,5,0,0.00
2013-12-30,62.0,55.1,51.0,25.0,16.5,5.0,29,22,15,30.18,30.09,16,2,0,0.00
2013-12-31,64.7,56.9,51.4,33.0,12.8,2.0,42,18,11,30.18,30.06,8,2,0,0.00
2014-1-1,64.7,58.7,55.3,27.0,14.1,1.0,27,18,10,30.12,30.04,8,2,0,0.00
2014-1-2,70.4,63.7,59.9,35.0,27.1,21.0,31,25,21,30.06,29.95,8,1,0,0.00